Terminal Aerodrome Forecast
Issued by NWS

Home | Current Version | Previous Version | Text Only | Print | Product List | Glossary On
Versions: 1 2 3 4 5 6 7 8 9 10 11 12 13 14 15 16 17 18 19 20
000
FTUS43 KTOP 190500
TAFFOE
TAF
KFOE 190520Z 1906/2006 02002KT 6SM BR OVC006
      TEMPO 1910/1914 2SM BR OVC004
     FM192000 18005KT 6SM BR SCT007 OVC011=

USA.gov is the U.S. government's official web portal to all federal, state and local government web resources and services.